sensor_id;sensor_type;location;lat;lon;timestamp;P1;durP1;ratioP1;P2;durP2;ratioP2
79399;SDS011;68856;45.586;10.264;2023-07-24T00:02:15;17.95;;;12.43;;
79399;SDS011;68856;45.586;10.264;2023-07-24T00:04:42;18.95;;;12.45;;
79399;SDS011;68856;45.586;10.264;2023-07-24T00:07:08;19.92;;;12.30;;
79399;SDS011;68856;45.586;10.264;2023-07-24T00:09:34;21.58;;;12.68;;
79399;SDS011;68856;45.586;10.264;2023-07-24T00:12:00;17.25;;;11.88;;
79399;SDS011;68856;45.586;10.264;2023-07-24T00:14:27;18.90;;;12.20;;
79399;SDS011;68856;45.586;10.264;2023-07-24T00:16:53;22.15;;;12.65;;
79399;SDS011;68856;45.586;10.264;2023-07-24T00:19:19;19.25;;;12.32;;
79399;SDS011;68856;45.586;10.264;2023-07-24T00:21:45;20.23;;;12.57;;
79399;SDS011;68856;45.586;10.264;2023-07-24T00:24:12;17.38;;;11.70;;
79399;SDS011;68856;45.586;10.264;2023-07-24T00:26:38;19.48;;;12.93;;
79399;SDS011;68856;45.586;10.264;2023-07-24T00:29:04;23.98;;;12.95;;
79399;SDS011;68856;45.586;10.264;2023-07-24T00:31:31;20.23;;;12.18;;
79399;SDS011;68856;45.586;10.264;2023-07-24T00:33:57;21.42;;;11.68;;
79399;SDS011;68856;45.586;10.264;2023-07-24T00:36:25;17.10;;;11.82;;
79399;SDS011;68856;45.586;10.264;2023-07-24T00:38:52;16.42;;;11.18;;
79399;SDS011;68856;45.586;10.264;2023-07-24T00:41:18;17.88;;;12.13;;
79399;SDS011;68856;45.586;10.264;2023-07-24T00:43:44;17.75;;;12.07;;
79399;SDS011;68856;45.586;10.264;2023-07-24T00:46:11;17.27;;;11.77;;
79399;SDS011;68856;45.586;10.264;2023-07-24T00:48:39;22.35;;;12.77;;
79399;SDS011;68856;45.586;10.264;2023-07-24T00:51:05;18.92;;;11.65;;
79399;SDS011;68856;45.586;10.264;2023-07-24T00:53:32;17.67;;;11.90;;
79399;SDS011;68856;45.586;10.264;2023-07-24T00:55:58;19.65;;;12.48;;
79399;SDS011;68856;45.586;10.264;2023-07-24T00:58:24;21.88;;;12.23;;
79399;SDS011;68856;45.586;10.264;2023-07-24T01:00:52;16.58;;;10.85;;
79399;SDS011;68856;45.586;10.264;2023-07-24T01:03:18;18.02;;;12.00;;
79399;SDS011;68856;45.586;10.264;2023-07-24T01:05:45;16.25;;;11.20;;
79399;SDS011;68856;45.586;10.264;2023-07-24T01:08:11;21.65;;;12.45;;
79399;SDS011;68856;45.586;10.264;2023-07-24T01:10:38;18.48;;;12.32;;
79399;SDS011;68856;45.586;10.264;2023-07-24T01:13:08;18.77;;;11.82;;
79399;SDS011;68856;45.586;10.264;2023-07-24T01:18:13;18.13;;;11.70;;
79399;SDS011;68856;45.586;10.264;2023-07-24T01:20:52;19.17;;;11.82;;
79399;SDS011;68856;45.586;10.264;2023-07-24T01:26:00;16.90;;;12.00;;
79399;SDS011;68856;45.586;10.264;2023-07-24T01:28:29;18.50;;;11.48;;
79399;SDS011;68856;45.586;10.264;2023-07-24T01:30:56;15.07;;;11.32;;
79399;SDS011;68856;45.586;10.264;2023-07-24T01:33:22;17.23;;;11.07;;
79399;SDS011;68856;45.586;10.264;2023-07-24T01:35:58;18.05;;;12.07;;
79399;SDS011;68856;45.586;10.264;2023-07-24T01:38:27;17.95;;;11.75;;
79399;SDS011;68856;45.586;10.264;2023-07-24T01:40:56;18.25;;;12.25;;
79399;SDS011;68856;45.586;10.264;2023-07-24T01:43:24;17.38;;;12.15;;
79399;SDS011;68856;45.586;10.264;2023-07-24T01:45:52;15.48;;;11.13;;
79399;SDS011;68856;45.586;10.264;2023-07-24T01:48:19;19.13;;;12.38;;
79399;SDS011;68856;45.586;10.264;2023-07-24T01:50:45;20.25;;;11.88;;
79399;SDS011;68856;45.586;10.264;2023-07-24T01:53:11;17.77;;;11.55;;
79399;SDS011;68856;45.586;10.264;2023-07-24T01:55:38;18.05;;;11.48;;
79399;SDS011;68856;45.586;10.264;2023-07-24T01:58:04;15.07;;;11.18;;
79399;SDS011;68856;45.586;10.264;2023-07-24T02:00:30;20.20;;;11.38;;
79399;SDS011;68856;45.586;10.264;2023-07-24T02:02:56;13.77;;;10.57;;
79399;SDS011;68856;45.586;10.264;2023-07-24T02:05:23;15.63;;;11.05;;
79399;SDS011;68856;45.586;10.264;2023-07-24T02:07:50;16.88;;;12.15;;
79399;SDS011;68856;45.586;10.264;2023-07-24T02:10:17;22.27;;;11.75;;
79399;SDS011;68856;45.586;10.264;2023-07-24T02:12:43;17.33;;;11.57;;
79399;SDS011;68856;45.586;10.264;2023-07-24T02:15:12;18.40;;;11.10;;
79399;SDS011;68856;45.586;10.264;2023-07-24T02:17:38;16.58;;;12.02;;
79399;SDS011;68856;45.586;10.264;2023-07-24T02:20:05;20.02;;;11.93;;
79399;SDS011;68856;45.586;10.264;2023-07-24T02:22:31;16.33;;;12.05;;
79399;SDS011;68856;45.586;10.264;2023-07-24T02:24:58;16.05;;;11.48;;
79399;SDS011;68856;45.586;10.264;2023-07-24T02:27:28;20.00;;;12.38;;
79399;SDS011;68856;45.586;10.264;2023-07-24T02:29:56;20.95;;;11.80;;
79399;SDS011;68856;45.586;10.264;2023-07-24T02:32:23;19.52;;;11.82;;
79399;SDS011;68856;45.586;10.264;2023-07-24T02:34:50;17.15;;;11.77;;
79399;SDS011;68856;45.586;10.264;2023-07-24T02:37:17;17.83;;;11.70;;
79399;SDS011;68856;45.586;10.264;2023-07-24T02:39:43;16.67;;;10.73;;
79399;SDS011;68856;45.586;10.264;2023-07-24T02:42:10;16.10;;;11.10;;
79399;SDS011;68856;45.586;10.264;2023-07-24T02:44:37;18.50;;;11.55;;
79399;SDS011;68856;45.586;10.264;2023-07-24T02:47:04;19.40;;;11.77;;
79399;SDS011;68856;45.586;10.264;2023-07-24T02:49:30;17.35;;;11.57;;
79399;SDS011;68856;45.586;10.264;2023-07-24T02:51:57;18.48;;;11.48;;
79399;SDS011;68856;45.586;10.264;2023-07-24T02:54:23;18.90;;;11.43;;
79399;SDS011;68856;45.586;10.264;2023-07-24T02:56:51;16.42;;;11.48;;
79399;SDS011;68856;45.586;10.264;2023-07-24T02:59:18;17.23;;;10.98;;
79399;SDS011;68856;45.586;10.264;2023-07-24T03:01:44;16.48;;;11.55;;
79399;SDS011;68856;45.586;10.264;2023-07-24T03:04:10;15.20;;;11.00;;
79399;SDS011;68856;45.586;10.264;2023-07-24T03:06:36;20.45;;;12.32;;
79399;SDS011;68856;45.586;10.264;2023-07-24T03:09:04;16.83;;;10.65;;
79399;SDS011;68856;45.586;10.264;2023-07-24T03:11:30;20.00;;;11.40;;
79399;SDS011;68856;45.586;10.264;2023-07-24T03:13:56;20.48;;;11.68;;
79399;SDS011;68856;45.586;10.264;2023-07-24T03:16:22;16.05;;;11.13;;
79399;SDS011;68856;45.586;10.264;2023-07-24T03:18:49;19.20;;;11.50;;
79399;SDS011;68856;45.586;10.264;2023-07-24T03:21:15;18.02;;;11.70;;
79399;SDS011;68856;45.586;10.264;2023-07-24T03:23:41;15.43;;;10.75;;
79399;SDS011;68856;45.586;10.264;2023-07-24T03:26:07;18.63;;;11.63;;
79399;SDS011;68856;45.586;10.264;2023-07-24T03:28:34;22.95;;;12.88;;
79399;SDS011;68856;45.586;10.264;2023-07-24T03:31:00;19.55;;;11.70;;
79399;SDS011;68856;45.586;10.264;2023-07-24T03:33:27;19.67;;;13.20;;
79399;SDS011;68856;45.586;10.264;2023-07-24T03:35:53;19.05;;;11.90;;
79399;SDS011;68856;45.586;10.264;2023-07-24T03:38:19;17.75;;;11.02;;
79399;SDS011;68856;45.586;10.264;2023-07-24T03:40:46;14.85;;;10.85;;
79399;SDS011;68856;45.586;10.264;2023-07-24T03:43:12;18.08;;;11.80;;
79399;SDS011;68856;45.586;10.264;2023-07-24T03:45:39;15.65;;;11.68;;
79399;SDS011;68856;45.586;10.264;2023-07-24T03:48:05;17.77;;;12.25;;
79399;SDS011;68856;45.586;10.264;2023-07-24T03:50:31;15.77;;;11.13;;
79399;SDS011;68856;45.586;10.264;2023-07-24T03:52:57;16.55;;;11.43;;
79399;SDS011;68856;45.586;10.264;2023-07-24T03:55:24;15.57;;;11.07;;
79399;SDS011;68856;45.586;10.264;2023-07-24T03:57:50;18.35;;;12.40;;
79399;SDS011;68856;45.586;10.264;2023-07-24T04:00:16;18.80;;;11.52;;
79399;SDS011;68856;45.586;10.264;2023-07-24T04:02:43;16.73;;;11.38;;
79399;SDS011;68856;45.586;10.264;2023-07-24T04:05:10;18.42;;;10.98;;
79399;SDS011;68856;45.586;10.264;2023-07-24T04:07:36;19.40;;;11.32;;
79399;SDS011;68856;45.586;10.264;2023-07-24T04:10:02;16.67;;;11.80;;
79399;SDS011;68856;45.586;10.264;2023-07-24T04:12:29;17.90;;;11.85;;
79399;SDS011;68856;45.586;10.264;2023-07-24T04:14:55;16.63;;;11.75;;
79399;SDS011;68856;45.586;10.264;2023-07-24T04:17:22;17.45;;;12.07;;
79399;SDS011;68856;45.586;10.264;2023-07-24T04:19:48;21.20;;;12.30;;
79399;SDS011;68856;45.586;10.264;2023-07-24T04:22:14;14.77;;;10.70;;
79399;SDS011;68856;45.586;10.264;2023-07-24T04:24:40;18.38;;;11.43;;
79399;SDS011;68856;45.586;10.264;2023-07-24T04:27:07;15.00;;;10.85;;
79399;SDS011;68856;45.586;10.264;2023-07-24T04:29:33;17.05;;;11.77;;
79399;SDS011;68856;45.586;10.264;2023-07-24T04:31:59;18.58;;;11.23;;
79399;SDS011;68856;45.586;10.264;2023-07-24T04:34:26;16.15;;;11.05;;
79399;SDS011;68856;45.586;10.264;2023-07-24T04:36:52;18.10;;;11.38;;
79399;SDS011;68856;45.586;10.264;2023-07-24T04:39:18;19.00;;;12.00;;
79399;SDS011;68856;45.586;10.264;2023-07-24T04:41:44;18.42;;;10.75;;
79399;SDS011;68856;45.586;10.264;2023-07-24T04:44:11;15.90;;;10.40;;
79399;SDS011;68856;45.586;10.264;2023-07-24T04:46:37;17.58;;;10.65;;
79399;SDS011;68856;45.586;10.264;2023-07-24T04:49:03;16.85;;;11.18;;
79399;SDS011;68856;45.586;10.264;2023-07-24T04:51:29;18.38;;;11.15;;
79399;SDS011;68856;45.586;10.264;2023-07-24T04:53:56;16.52;;;10.70;;
79399;SDS011;68856;45.586;10.264;2023-07-24T04:56:25;15.55;;;11.00;;
79399;SDS011;68856;45.586;10.264;2023-07-24T04:58:51;17.25;;;10.55;;
79399;SDS011;68856;45.586;10.264;2023-07-24T05:01:17;15.45;;;10.48;;
79399;SDS011;68856;45.586;10.264;2023-07-24T05:03:43;21.33;;;11.55;;
79399;SDS011;68856;45.586;10.264;2023-07-24T05:06:10;18.20;;;11.60;;
79399;SDS011;68856;45.586;10.264;2023-07-24T05:08:36;16.85;;;11.45;;
79399;SDS011;68856;45.586;10.264;2023-07-24T05:11:02;19.05;;;12.05;;
79399;SDS011;68856;45.586;10.264;2023-07-24T05:13:28;18.25;;;12.38;;
79399;SDS011;68856;45.586;10.264;2023-07-24T05:15:54;18.92;;;12.30;;
79399;SDS011;68856;45.586;10.264;2023-07-24T05:18:21;17.33;;;11.45;;
79399;SDS011;68856;45.586;10.264;2023-07-24T05:20:48;17.15;;;11.77;;
79399;SDS011;68856;45.586;10.264;2023-07-24T05:23:16;18.58;;;12.05;;
79399;SDS011;68856;45.586;10.264;2023-07-24T05:25:42;22.42;;;12.20;;
79399;SDS011;68856;45.586;10.264;2023-07-24T05:28:09;19.67;;;12.32;;
79399;SDS011;68856;45.586;10.264;2023-07-24T05:30:35;17.15;;;11.65;;
79399;SDS011;68856;45.586;10.264;2023-07-24T05:33:02;17.52;;;11.75;;
79399;SDS011;68856;45.586;10.264;2023-07-24T05:35:28;19.15;;;11.88;;
79399;SDS011;68856;45.586;10.264;2023-07-24T05:37:54;19.38;;;11.13;;
79399;SDS011;68856;45.586;10.264;2023-07-24T05:40:21;21.42;;;11.93;;
79399;SDS011;68856;45.586;10.264;2023-07-24T05:42:47;17.42;;;11.68;;
79399;SDS011;68856;45.586;10.264;2023-07-24T05:45:13;15.65;;;10.50;;
79399;SDS011;68856;45.586;10.264;2023-07-24T05:47:40;14.93;;;11.18;;
79399;SDS011;68856;45.586;10.264;2023-07-24T05:50:06;15.38;;;10.30;;
79399;SDS011;68856;45.586;10.264;2023-07-24T05:52:33;13.95;;;10.10;;
79399;SDS011;68856;45.586;10.264;2023-07-24T05:54:59;17.23;;;10.48;;
79399;SDS011;68856;45.586;10.264;2023-07-24T05:57:25;13.27;;;9.55;;
79399;SDS011;68856;45.586;10.264;2023-07-24T05:59:51;14.38;;;9.77;;
79399;SDS011;68856;45.586;10.264;2023-07-24T06:02:18;15.02;;;10.30;;
79399;SDS011;68856;45.586;10.264;2023-07-24T06:04:44;16.02;;;10.32;;
79399;SDS011;68856;45.586;10.264;2023-07-24T06:07:11;17.27;;;10.23;;
79399;SDS011;68856;45.586;10.264;2023-07-24T06:09:38;15.82;;;11.00;;
79399;SDS011;68856;45.586;10.264;2023-07-24T06:12:04;16.38;;;10.35;;
79399;SDS011;68856;45.586;10.264;2023-07-24T06:14:30;15.10;;;10.68;;
79399;SDS011;68856;45.586;10.264;2023-07-24T06:16:57;15.50;;;10.13;;
79399;SDS011;68856;45.586;10.264;2023-07-24T06:19:23;13.50;;;9.63;;
79399;SDS011;68856;45.586;10.264;2023-07-24T06:21:49;16.50;;;10.38;;
79399;SDS011;68856;45.586;10.264;2023-07-24T06:24:16;18.75;;;10.48;;
79399;SDS011;68856;45.586;10.264;2023-07-24T06:26:43;15.23;;;9.57;;
79399;SDS011;68856;45.586;10.264;2023-07-24T06:29:09;15.50;;;10.65;;
79399;SDS011;68856;45.586;10.264;2023-07-24T06:31:35;13.57;;;9.88;;
79399;SDS011;68856;45.586;10.264;2023-07-24T06:34:02;15.20;;;10.40;;
79399;SDS011;68856;45.586;10.264;2023-07-24T06:36:28;20.23;;;12.00;;
79399;SDS011;68856;45.586;10.264;2023-07-24T06:38:55;17.95;;;10.88;;
79399;SDS011;68856;45.586;10.264;2023-07-24T06:41:21;16.65;;;11.82;;
79399;SDS011;68856;45.586;10.264;2023-07-24T06:43:51;19.13;;;11.77;;
79399;SDS011;68856;45.586;10.264;2023-07-24T06:46:17;18.92;;;11.45;;
79399;SDS011;68856;45.586;10.264;2023-07-24T06:48:43;18.08;;;11.65;;
79399;SDS011;68856;45.586;10.264;2023-07-24T06:51:09;14.65;;;10.15;;
79399;SDS011;68856;45.586;10.264;2023-07-24T06:53:36;14.10;;;10.10;;
79399;SDS011;68856;45.586;10.264;2023-07-24T06:56:02;13.55;;;10.00;;
79399;SDS011;68856;45.586;10.264;2023-07-24T06:58:28;15.07;;;11.32;;
79399;SDS011;68856;45.586;10.264;2023-07-24T07:00:54;16.05;;;10.18;;
79399;SDS011;68856;45.586;10.264;2023-07-24T07:03:21;19.13;;;12.00;;
79399;SDS011;68856;45.586;10.264;2023-07-24T07:05:47;19.90;;;10.98;;
79399;SDS011;68856;45.586;10.264;2023-07-24T07:08:13;13.98;;;10.27;;
79399;SDS011;68856;45.586;10.264;2023-07-24T07:10:40;18.52;;;11.68;;
79399;SDS011;68856;45.586;10.264;2023-07-24T07:13:06;18.15;;;11.05;;
79399;SDS011;68856;45.586;10.264;2023-07-24T07:15:32;22.60;;;11.98;;
79399;SDS011;68856;45.586;10.264;2023-07-24T07:18:00;20.08;;;11.73;;
79399;SDS011;68856;45.586;10.264;2023-07-24T07:20:26;16.02;;;10.90;;
79399;SDS011;68856;45.586;10.264;2023-07-24T07:22:52;15.63;;;10.50;;
79399;SDS011;68856;45.586;10.264;2023-07-24T07:25:19;17.50;;;10.95;;
79399;SDS011;68856;45.586;10.264;2023-07-24T07:27:45;20.20;;;11.35;;
79399;SDS011;68856;45.586;10.264;2023-07-24T07:30:11;16.27;;;10.60;;
79399;SDS011;68856;45.586;10.264;2023-07-24T07:32:37;18.33;;;10.70;;
79399;SDS011;68856;45.586;10.264;2023-07-24T07:35:04;23.25;;;10.73;;
79399;SDS011;68856;45.586;10.264;2023-07-24T07:37:31;16.35;;;9.93;;
79399;SDS011;68856;45.586;10.264;2023-07-24T07:39:57;24.88;;;11.18;;
79399;SDS011;68856;45.586;10.264;2023-07-24T07:42:23;25.08;;;11.23;;
79399;SDS011;68856;45.586;10.264;2023-07-24T07:44:49;13.13;;;10.25;;
79399;SDS011;68856;45.586;10.264;2023-07-24T07:47:15;20.55;;;10.63;;
79399;SDS011;68856;45.586;10.264;2023-07-24T07:49:42;18.67;;;10.73;;
79399;SDS011;68856;45.586;10.264;2023-07-24T07:52:08;19.80;;;11.43;;
79399;SDS011;68856;45.586;10.264;2023-07-24T07:54:34;16.80;;;10.10;;
79399;SDS011;68856;45.586;10.264;2023-07-24T07:57:01;15.05;;;10.13;;
79399;SDS011;68856;45.586;10.264;2023-07-24T07:59:28;15.50;;;10.07;;
79399;SDS011;68856;45.586;10.264;2023-07-24T08:01:55;16.83;;;10.45;;
79399;SDS011;68856;45.586;10.264;2023-07-24T08:04:21;16.77;;;10.70;;
79399;SDS011;68856;45.586;10.264;2023-07-24T08:06:47;13.50;;;10.10;;
79399;SDS011;68856;45.586;10.264;2023-07-24T08:09:13;17.15;;;10.13;;
79399;SDS011;68856;45.586;10.264;2023-07-24T08:11:40;13.90;;;10.27;;
79399;SDS011;68856;45.586;10.264;2023-07-24T08:14:06;14.63;;;10.52;;
79399;SDS011;68856;45.586;10.264;2023-07-24T08:16:32;15.30;;;11.30;;
79399;SDS011;68856;45.586;10.264;2023-07-24T08:18:59;15.15;;;10.23;;
79399;SDS011;68856;45.586;10.264;2023-07-24T08:21:25;15.40;;;10.93;;
79399;SDS011;68856;45.586;10.264;2023-07-24T08:23:51;15.23;;;11.05;;
79399;SDS011;68856;45.586;10.264;2023-07-24T08:26:17;16.02;;;10.80;;
79399;SDS011;68856;45.586;10.264;2023-07-24T08:28:43;13.32;;;10.75;;
79399;SDS011;68856;45.586;10.264;2023-07-24T08:31:10;15.63;;;10.85;;
79399;SDS011;68856;45.586;10.264;2023-07-24T08:33:36;17.00;;;11.10;;
79399;SDS011;68856;45.586;10.264;2023-07-24T08:36:03;14.75;;;9.95;;
79399;SDS011;68856;45.586;10.264;2023-07-24T08:38:31;16.17;;;10.38;;
79399;SDS011;68856;45.586;10.264;2023-07-24T08:41:07;16.88;;;11.10;;
79399;SDS011;68856;45.586;10.264;2023-07-24T08:43:36;20.05;;;10.35;;
79399;SDS011;68856;45.586;10.264;2023-07-24T08:46:04;15.15;;;10.57;;
79399;SDS011;68856;45.586;10.264;2023-07-24T08:48:40;17.98;;;11.40;;
79399;SDS011;68856;45.586;10.264;2023-07-24T08:51:11;14.20;;;10.60;;
79399;SDS011;68856;45.586;10.264;2023-07-24T08:53:38;16.73;;;11.45;;
79399;SDS011;68856;45.586;10.264;2023-07-24T08:56:09;14.95;;;10.10;;
79399;SDS011;68856;45.586;10.264;2023-07-24T08:58:37;16.17;;;10.07;;
79399;SDS011;68856;45.586;10.264;2023-07-24T09:01:07;16.00;;;10.75;;
79399;SDS011;68856;45.586;10.264;2023-07-24T09:03:34;16.60;;;11.07;;
79399;SDS011;68856;45.586;10.264;2023-07-24T09:06:01;17.90;;;11.20;;
79399;SDS011;68856;45.586;10.264;2023-07-24T09:08:33;17.10;;;11.18;;
79399;SDS011;68856;45.586;10.264;2023-07-24T09:11:01;17.80;;;10.88;;
79399;SDS011;68856;45.586;10.264;2023-07-24T09:13:28;14.35;;;10.63;;
79399;SDS011;68856;45.586;10.264;2023-07-24T09:15:56;14.80;;;10.65;;
79399;SDS011;68856;45.586;10.264;2023-07-24T09:18:24;17.80;;;10.30;;
79399;SDS011;68856;45.586;10.264;2023-07-24T09:20:50;16.30;;;11.50;;
79399;SDS011;68856;45.586;10.264;2023-07-24T09:23:25;15.60;;;10.65;;
79399;SDS011;68856;45.586;10.264;2023-07-24T09:25:55;16.98;;;12.15;;
79399;SDS011;68856;45.586;10.264;2023-07-24T09:28:22;18.20;;;11.15;;
79399;SDS011;68856;45.586;10.264;2023-07-24T09:30:56;16.20;;;10.90;;
79399;SDS011;68856;45.586;10.264;2023-07-24T09:33:35;17.75;;;11.45;;
79399;SDS011;68856;45.586;10.264;2023-07-24T09:36:03;15.23;;;11.18;;
79399;SDS011;68856;45.586;10.264;2023-07-24T09:38:32;20.98;;;12.95;;
79399;SDS011;68856;45.586;10.264;2023-07-24T09:41:00;21.35;;;12.57;;
79399;SDS011;68856;45.586;10.264;2023-07-24T09:43:28;20.63;;;12.50;;
79399;SDS011;68856;45.586;10.264;2023-07-24T09:45:55;21.23;;;12.02;;
79399;SDS011;68856;45.586;10.264;2023-07-24T09:48:23;16.02;;;10.98;;
79399;SDS011;68856;45.586;10.264;2023-07-24T09:50:54;13.88;;;10.68;;
79399;SDS011;68856;45.586;10.264;2023-07-24T09:56:01;21.40;;;11.45;;
79399;SDS011;68856;45.586;10.264;2023-07-24T09:58:29;15.85;;;11.02;;
79399;SDS011;68856;45.586;10.264;2023-07-24T10:01:01;15.35;;;11.20;;
79399;SDS011;68856;45.586;10.264;2023-07-24T10:03:31;15.80;;;10.70;;
79399;SDS011;68856;45.586;10.264;2023-07-24T10:05:59;15.15;;;10.82;;
79399;SDS011;68856;45.586;10.264;2023-07-24T10:08:27;16.55;;;10.65;;
79399;SDS011;68856;45.586;10.264;2023-07-24T10:10:53;17.13;;;11.00;;
79399;SDS011;68856;45.586;10.264;2023-07-24T10:13:20;17.77;;;11.02;;
79399;SDS011;68856;45.586;10.264;2023-07-24T10:15:47;17.67;;;11.20;;
79399;SDS011;68856;45.586;10.264;2023-07-24T10:18:15;15.40;;;10.30;;
79399;SDS011;68856;45.586;10.264;2023-07-24T10:20:45;17.70;;;12.13;;
79399;SDS011;68856;45.586;10.264;2023-07-24T10:23:15;18.15;;;11.07;;
79399;SDS011;68856;45.586;10.264;2023-07-24T10:25:44;19.77;;;11.60;;
79399;SDS011;68856;45.586;10.264;2023-07-24T10:28:11;17.85;;;11.90;;
79399;SDS011;68856;45.586;10.264;2023-07-24T10:33:11;24.85;;;11.50;;
79399;SDS011;68856;45.586;10.264;2023-07-24T10:35:43;17.45;;;11.93;;
79399;SDS011;68856;45.586;10.264;2023-07-24T10:38:12;17.55;;;10.98;;
79399;SDS011;68856;45.586;10.264;2023-07-24T10:40:43;16.77;;;10.98;;
79399;SDS011;68856;45.586;10.264;2023-07-24T10:43:12;15.57;;;11.10;;
79399;SDS011;68856;45.586;10.264;2023-07-24T10:45:49;15.43;;;10.32;;
79399;SDS011;68856;45.586;10.264;2023-07-24T10:48:18;14.95;;;9.77;;
79399;SDS011;68856;45.586;10.264;2023-07-24T10:50:46;20.25;;;10.43;;
79399;SDS011;68856;45.586;10.264;2023-07-24T10:53:18;15.23;;;10.52;;
79399;SDS011;68856;45.586;10.264;2023-07-24T10:55:47;19.02;;;11.07;;
79399;SDS011;68856;45.586;10.264;2023-07-24T10:58:15;16.40;;;11.20;;
79399;SDS011;68856;45.586;10.264;2023-07-24T11:00:42;15.82;;;10.38;;
79399;SDS011;68856;45.586;10.264;2023-07-24T11:03:09;17.55;;;10.80;;
79399;SDS011;68856;45.586;10.264;2023-07-24T11:05:40;14.57;;;10.57;;
79399;SDS011;68856;45.586;10.264;2023-07-24T11:08:13;15.68;;;10.70;;
79399;SDS011;68856;45.586;10.264;2023-07-24T11:10:48;15.65;;;10.15;;
79399;SDS011;68856;45.586;10.264;2023-07-24T11:13:16;17.58;;;11.68;;
79399;SDS011;68856;45.586;10.264;2023-07-24T11:15:44;13.40;;;9.93;;
79399;SDS011;68856;45.586;10.264;2023-07-24T11:18:11;16.65;;;10.68;;
79399;SDS011;68856;45.586;10.264;2023-07-24T11:20:38;19.08;;;11.48;;
79399;SDS011;68856;45.586;10.264;2023-07-24T11:23:11;13.57;;;9.70;;
79399;SDS011;68856;45.586;10.264;2023-07-24T11:25:38;14.07;;;10.30;;
79399;SDS011;68856;45.586;10.264;2023-07-24T11:28:05;13.27;;;10.23;;
79399;SDS011;68856;45.586;10.264;2023-07-24T11:30:33;17.75;;;10.50;;
79399;SDS011;68856;45.586;10.264;2023-07-24T11:33:01;12.82;;;10.13;;
79399;SDS011;68856;45.586;10.264;2023-07-24T11:35:28;17.23;;;10.43;;
79399;SDS011;68856;45.586;10.264;2023-07-24T11:37:55;13.25;;;9.38;;
79399;SDS011;68856;45.586;10.264;2023-07-24T11:40:29;13.40;;;10.93;;
79399;SDS011;68856;45.586;10.264;2023-07-24T11:43:00;14.85;;;9.80;;
79399;SDS011;68856;45.586;10.264;2023-07-24T11:45:27;14.45;;;9.80;;
79399;SDS011;68856;45.586;10.264;2023-07-24T11:47:54;17.40;;;10.25;;
79399;SDS011;68856;45.586;10.264;2023-07-24T11:50:21;14.02;;;10.32;;
79399;SDS011;68856;45.586;10.264;2023-07-24T11:52:49;13.25;;;9.43;;
79399;SDS011;68856;45.586;10.264;2023-07-24T11:55:18;15.57;;;9.50;;
79399;SDS011;68856;45.586;10.264;2023-07-24T11:57:59;12.73;;;9.13;;
79399;SDS011;68856;45.586;10.264;2023-07-24T12:00:26;13.40;;;9.80;;
79399;SDS011;68856;45.586;10.264;2023-07-24T12:02:59;14.45;;;9.70;;
79399;SDS011;68856;45.586;10.264;2023-07-24T12:05:26;15.77;;;9.98;;
79399;SDS011;68856;45.586;10.264;2023-07-24T12:07:53;15.43;;;9.35;;
79399;SDS011;68856;45.586;10.264;2023-07-24T12:10:27;13.60;;;9.50;;
79399;SDS011;68856;45.586;10.264;2023-07-24T12:12:54;14.70;;;9.90;;
79399;SDS011;68856;45.586;10.264;2023-07-24T12:15:24;15.20;;;9.68;;
79399;SDS011;68856;45.586;10.264;2023-07-24T12:17:52;13.80;;;9.90;;
79399;SDS011;68856;45.586;10.264;2023-07-24T12:20:18;14.60;;;9.20;;
79399;SDS011;68856;45.586;10.264;2023-07-24T12:22:45;14.65;;;10.48;;
79399;SDS011;68856;45.586;10.264;2023-07-24T12:25:12;16.38;;;9.52;;
79399;SDS011;68856;45.586;10.264;2023-07-24T12:27:41;15.55;;;9.05;;
79399;SDS011;68856;45.586;10.264;2023-07-24T12:30:08;15.40;;;9.63;;
79399;SDS011;68856;45.586;10.264;2023-07-24T12:32:34;13.68;;;9.00;;
79399;SDS011;68856;45.586;10.264;2023-07-24T12:35:01;15.50;;;10.32;;
79399;SDS011;68856;45.586;10.264;2023-07-24T12:37:27;14.88;;;9.65;;
79399;SDS011;68856;45.586;10.264;2023-07-24T12:39:53;14.02;;;8.90;;
79399;SDS011;68856;45.586;10.264;2023-07-24T12:42:20;13.63;;;9.18;;
79399;SDS011;68856;45.586;10.264;2023-07-24T12:44:46;14.38;;;9.60;;
79399;SDS011;68856;45.586;10.264;2023-07-24T12:47:12;46.15;;;9.98;;
79399;SDS011;68856;45.586;10.264;2023-07-24T12:49:39;21.38;;;11.27;;
79399;SDS011;68856;45.586;10.264;2023-07-24T12:52:05;19.02;;;9.82;;
79399;SDS011;68856;45.586;10.264;2023-07-24T12:54:32;12.30;;;8.85;;
79399;SDS011;68856;45.586;10.264;2023-07-24T12:56:59;13.55;;;8.35;;
79399;SDS011;68856;45.586;10.264;2023-07-24T12:59:27;15.52;;;8.82;;
79399;SDS011;68856;45.586;10.264;2023-07-24T13:01:54;16.15;;;8.15;;
79399;SDS011;68856;45.586;10.264;2023-07-24T13:04:20;16.73;;;8.68;;
79399;SDS011;68856;45.586;10.264;2023-07-24T13:06:47;16.23;;;10.07;;
79399;SDS011;68856;45.586;10.264;2023-07-24T13:09:14;13.82;;;8.20;;
79399;SDS011;68856;45.586;10.264;2023-07-24T13:11:40;11.07;;;7.70;;
79399;SDS011;68856;45.586;10.264;2023-07-24T13:14:06;11.05;;;8.27;;
79399;SDS011;68856;45.586;10.264;2023-07-24T13:16:33;12.80;;;8.35;;
79399;SDS011;68856;45.586;10.264;2023-07-24T13:18:59;10.25;;;7.40;;
79399;SDS011;68856;45.586;10.264;2023-07-24T13:21:26;8.77;;;6.68;;
79399;SDS011;68856;45.586;10.264;2023-07-24T13:23:52;10.88;;;6.85;;
79399;SDS011;68856;45.586;10.264;2023-07-24T13:26:18;9.80;;;6.60;;
79399;SDS011;68856;45.586;10.264;2023-07-24T13:28:45;8.25;;;6.28;;
79399;SDS011;68856;45.586;10.264;2023-07-24T13:31:12;9.18;;;6.25;;
79399;SDS011;68856;45.586;10.264;2023-07-24T13:33:40;13.05;;;6.63;;
79399;SDS011;68856;45.586;10.264;2023-07-24T13:36:06;10.30;;;6.82;;
79399;SDS011;68856;45.586;10.264;2023-07-24T13:38:32;10.50;;;6.45;;
79399;SDS011;68856;45.586;10.264;2023-07-24T13:40:59;10.35;;;7.70;;
79399;SDS011;68856;45.586;10.264;2023-07-24T13:43:26;12.23;;;7.75;;
79399;SDS011;68856;45.586;10.264;2023-07-24T13:45:53;12.85;;;7.63;;
79399;SDS011;68856;45.586;10.264;2023-07-24T13:48:20;12.90;;;7.80;;
79399;SDS011;68856;45.586;10.264;2023-07-24T13:50:46;10.35;;;7.03;;
79399;SDS011;68856;45.586;10.264;2023-07-24T13:53:12;10.20;;;6.50;;
79399;SDS011;68856;45.586;10.264;2023-07-24T13:55:39;13.07;;;7.50;;
79399;SDS011;68856;45.586;10.264;2023-07-24T13:58:05;12.10;;;8.13;;
79399;SDS011;68856;45.586;10.264;2023-07-24T14:00:31;10.43;;;7.40;;
79399;SDS011;68856;45.586;10.264;2023-07-24T14:02:57;10.88;;;7.70;;
79399;SDS011;68856;45.586;10.264;2023-07-24T14:05:24;12.13;;;7.32;;
79399;SDS011;68856;45.586;10.264;2023-07-24T14:07:50;12.05;;;6.22;;
79399;SDS011;68856;45.586;10.264;2023-07-24T14:10:16;13.07;;;6.70;;
79399;SDS011;68856;45.586;10.264;2023-07-24T14:12:43;11.00;;;6.80;;
79399;SDS011;68856;45.586;10.264;2023-07-24T14:15:09;10.93;;;7.07;;
79399;SDS011;68856;45.586;10.264;2023-07-24T14:17:35;11.77;;;7.45;;
79399;SDS011;68856;45.586;10.264;2023-07-24T14:20:02;11.52;;;6.15;;
79399;SDS011;68856;45.586;10.264;2023-07-24T14:22:29;10.23;;;5.03;;